createdAt,value
2018-11-04T00:00:09.512Z,18.37
2018-11-04T00:02:39.388Z,20.10
2018-11-04T00:05:09.680Z,22.80
2018-11-04T00:07:39.695Z,22.10
2018-11-04T00:10:10.669Z,20.70
2018-11-04T00:12:41.455Z,18.70
2018-11-04T00:15:12.688Z,24.80
2018-11-04T00:17:42.889Z,18.73
2018-11-04T00:20:14.110Z,26.97
2018-11-04T00:22:45.567Z,23.03
2018-11-04T00:25:16.026Z,26.03
2018-11-04T00:27:46.532Z,24.60
2018-11-04T00:30:17.010Z,23.03
2018-11-04T00:32:47.026Z,23.53
2018-11-04T00:35:17.127Z,25.37
2018-11-04T00:37:47.124Z,31.17
2018-11-04T00:40:17.248Z,23.43
2018-11-04T00:42:48.675Z,22.80
2018-11-04T00:45:19.463Z,22.60
2018-11-04T00:47:49.796Z,22.33
2018-11-04T00:50:19.928Z,24.40
2018-11-04T00:52:50.140Z,24.97
2018-11-04T00:55:20.060Z,24.17
2018-11-04T00:57:49.726Z,19.13
2018-11-04T01:00:21.042Z,25.20
2018-11-04T01:02:51.655Z,21.97
2018-11-04T01:05:22.831Z,26.17
2018-11-04T01:07:53.575Z,22.13
2018-11-04T01:10:23.384Z,24.07
2018-11-04T01:12:53.330Z,23.83
2018-11-04T01:15:23.742Z,19.60
2018-11-04T01:17:53.563Z,21.00
2018-11-04T01:20:24.354Z,22.40
2018-11-04T01:22:54.211Z,23.40
2018-11-04T01:25:24.230Z,25.60
2018-11-04T01:27:54.222Z,23.83
2018-11-04T01:30:24.004Z,26.40
2018-11-04T01:32:53.870Z,24.07
2018-11-04T01:35:23.922Z,27.27
2018-11-04T01:37:53.807Z,23.60
2018-11-04T01:40:24.848Z,28.70
2018-11-04T01:42:54.763Z,24.13
2018-11-04T01:45:24.776Z,25.00
2018-11-04T01:47:54.899Z,25.20
2018-11-04T01:50:24.655Z,25.93
2018-11-04T01:52:54.764Z,25.77
2018-11-04T01:55:24.563Z,32.13
2018-11-04T01:57:54.356Z,20.17
2018-11-04T02:00:24.088Z,22.47
2018-11-04T02:02:54.665Z,28.60
2018-11-04T02:05:24.429Z,22.00
2018-11-04T02:07:54.133Z,22.73
2018-11-04T02:10:23.988Z,22.73
2018-11-04T02:12:53.988Z,23.87
2018-11-04T02:15:23.724Z,26.47
2018-11-04T02:17:53.878Z,21.20
2018-11-04T02:20:23.816Z,26.67
2018-11-04T02:22:53.644Z,23.87
2018-11-04T02:25:23.540Z,27.00
2018-11-04T02:27:53.760Z,26.57
2018-11-04T02:30:23.799Z,21.83
2018-11-04T02:32:53.970Z,24.77
2018-11-04T02:35:24.124Z,21.40
2018-11-04T02:37:53.795Z,22.17
2018-11-04T02:40:23.655Z,26.60
2018-11-04T02:42:53.987Z,23.07
2018-11-04T02:45:24.008Z,22.07
2018-11-04T02:47:55.985Z,26.97
2018-11-04T02:50:26.061Z,23.50
2018-11-04T02:52:56.902Z,28.37
2018-11-04T02:55:26.830Z,21.03
2018-11-04T02:57:57.430Z,24.10
2018-11-04T03:00:27.162Z,19.40
2018-11-04T03:02:57.066Z,24.20
2018-11-04T03:05:27.191Z,27.47
2018-11-04T03:07:57.075Z,24.93
2018-11-04T03:10:27.090Z,24.30
2018-11-04T03:12:57.683Z,21.50
2018-11-04T03:15:28.019Z,24.50
2018-11-04T03:17:57.786Z,22.37
2018-11-04T03:20:27.820Z,21.77
2018-11-04T03:22:57.507Z,25.23
2018-11-04T03:25:27.567Z,28.80
2018-11-04T03:27:58.394Z,29.07
2018-11-04T03:30:28.320Z,22.33
2018-11-04T03:32:58.178Z,24.47
2018-11-04T03:35:28.050Z,23.77
2018-11-04T03:37:58.063Z,24.30
2018-11-04T03:40:28.007Z,27.43
2018-11-04T03:42:58.348Z,21.63
2018-11-04T03:45:28.599Z,26.63
2018-11-04T03:47:58.556Z,26.90
2018-11-04T03:50:28.848Z,28.30
2018-11-04T03:53:02.791Z,29.63
2018-11-04T03:55:32.879Z,26.20
2018-11-04T03:58:03.222Z,27.00
2018-11-04T04:00:33.155Z,26.53
2018-11-04T04:03:03.127Z,28.93
2018-11-04T04:05:33.448Z,30.33
2018-11-04T04:08:04.116Z,31.07
2018-11-04T04:10:33.808Z,29.23
2018-11-04T04:13:04.359Z,30.43
2018-11-04T04:15:34.434Z,34.80
2018-11-04T04:18:04.458Z,27.53
2018-11-04T04:20:35.202Z,29.67
2018-11-04T04:23:04.937Z,30.00
2018-11-04T04:25:34.838Z,29.73
2018-11-04T04:28:04.746Z,28.03
2018-11-04T04:30:34.916Z,31.60
2018-11-04T04:33:04.943Z,27.60
2018-11-04T04:35:34.953Z,32.20
2018-11-04T04:38:05.073Z,31.10
2018-11-04T04:40:36.043Z,25.80
2018-11-04T04:43:06.213Z,27.80
2018-11-04T04:45:36.693Z,32.07
2018-11-04T04:48:06.699Z,29.90
2018-11-04T04:50:36.656Z,30.50
2018-11-04T04:53:06.772Z,31.70
2018-11-04T04:55:36.555Z,32.57
2018-11-04T04:58:06.487Z,32.90
2018-11-04T05:00:37.122Z,33.63
2018-11-04T05:03:06.984Z,33.20
2018-11-04T05:05:36.999Z,30.73
2018-11-04T05:08:07.414Z,30.93
2018-11-04T05:10:37.420Z,26.30
2018-11-04T05:13:07.251Z,30.80
2018-11-04T05:15:37.726Z,34.40
2018-11-04T05:18:07.961Z,29.60
2018-11-04T05:20:37.987Z,30.60
2018-11-04T05:23:09.695Z,32.20
2018-11-04T05:25:39.439Z,31.37
2018-11-04T05:28:09.690Z,29.43
2018-11-04T05:30:39.873Z,37.23
2018-11-04T05:33:09.698Z,29.27
2018-11-04T05:35:40.079Z,33.07
2018-11-04T05:38:10.328Z,32.70
2018-11-04T05:40:40.443Z,35.70
2018-11-04T05:43:10.338Z,33.50
2018-11-04T05:45:40.510Z,31.70
2018-11-04T05:48:10.897Z,35.67
2018-11-04T05:50:40.865Z,36.30
2018-11-04T05:53:11.454Z,37.30
2018-11-04T05:55:41.503Z,32.83
2018-11-04T05:58:11.594Z,40.10
2018-11-04T06:00:42.147Z,38.00
2018-11-04T06:03:12.603Z,35.53
2018-11-04T06:05:42.833Z,34.97
2018-11-04T06:08:12.960Z,37.23
2018-11-04T06:10:43.064Z,37.77
2018-11-04T06:13:13.585Z,31.43
2018-11-04T06:15:43.969Z,34.23
2018-11-04T06:18:14.088Z,38.60
2018-11-04T06:20:44.351Z,37.90
2018-11-04T06:23:14.539Z,36.30
2018-11-04T06:25:44.455Z,37.87
2018-11-04T06:28:14.859Z,34.83
2018-11-04T06:30:45.775Z,33.00
2018-11-04T06:33:16.003Z,30.20
2018-11-04T06:35:46.091Z,44.33
2018-11-04T06:38:16.507Z,38.70
2018-11-04T06:40:46.822Z,34.67
2018-11-04T06:43:17.376Z,33.20
2018-11-04T06:45:47.943Z,38.30
2018-11-04T06:48:18.150Z,36.93
2018-11-04T06:50:48.703Z,44.67
2018-11-04T06:53:19.706Z,41.00
2018-11-04T06:55:50.547Z,39.50
2018-11-04T06:58:22.018Z,39.50
2018-11-04T07:00:55.834Z,43.17
2018-11-04T07:03:30.630Z,43.30
2018-11-04T07:06:02.036Z,44.37
2018-11-04T07:08:33.705Z,47.63
2018-11-04T07:11:08.102Z,44.00
2018-11-04T07:13:41.166Z,40.97
2018-11-04T07:16:13.600Z,43.00
2018-11-04T07:18:43.634Z,45.57
2018-11-04T07:21:13.647Z,39.00
2018-11-04T07:23:43.978Z,43.40
2018-11-04T07:26:14.899Z,41.27
2018-11-04T07:28:45.098Z,38.63
2018-11-04T07:31:15.887Z,39.60
2018-11-04T07:33:46.878Z,47.97
2018-11-04T07:36:17.151Z,48.13
2018-11-04T07:38:47.264Z,43.90
2018-11-04T07:41:17.890Z,41.77
2018-11-04T07:43:47.939Z,41.60
2018-11-04T07:46:18.463Z,50.90
2018-11-04T07:48:49.597Z,42.40
2018-11-04T07:51:19.833Z,50.07
2018-11-04T07:53:50.390Z,44.90
2018-11-04T07:56:20.615Z,46.47
2018-11-04T07:58:51.159Z,50.00
2018-11-04T08:01:21.483Z,43.23
2018-11-04T08:03:51.909Z,40.10
2018-11-04T08:06:23.393Z,38.40
2018-11-04T08:08:53.799Z,46.37
2018-11-04T08:11:24.141Z,47.70
2018-11-04T08:13:54.215Z,44.37
2018-11-04T08:16:24.979Z,45.60
2018-11-04T08:18:55.739Z,46.73
2018-11-04T08:21:27.274Z,51.60
2018-11-04T08:23:57.419Z,47.90
2018-11-04T08:26:29.383Z,48.97
2018-11-04T08:28:59.374Z,57.43
2018-11-04T08:31:29.798Z,48.83
2018-11-04T08:34:00.202Z,40.67
2018-11-04T08:36:30.627Z,47.30
2018-11-04T08:39:00.723Z,44.90
2018-11-04T08:41:30.872Z,41.83
2018-11-04T08:44:04.092Z,46.43
2018-11-04T08:46:37.892Z,49.33
2018-11-04T08:49:09.844Z,52.10
2018-11-04T08:51:40.923Z,48.77
2018-11-04T08:54:11.493Z,56.63
2018-11-04T08:56:41.703Z,49.50
2018-11-04T08:59:13.712Z,45.50
2018-11-04T09:01:44.481Z,46.27
2018-11-04T09:04:15.963Z,45.00
2018-11-04T09:06:46.406Z,49.67
2018-11-04T09:09:17.503Z,46.23
2018-11-04T09:11:49.521Z,50.97
2018-11-04T09:14:22.032Z,48.90
2018-11-04T09:16:52.692Z,50.70
2018-11-04T09:19:23.615Z,48.47
2018-11-04T09:21:53.843Z,45.90
2018-11-04T09:24:24.502Z,47.33
2018-11-04T09:26:55.006Z,51.40
2018-11-04T09:29:25.745Z,49.67
2018-11-04T09:31:56.239Z,45.30
2018-11-04T09:34:26.362Z,46.70
2018-11-04T09:36:56.791Z,50.17
2018-11-04T09:39:26.807Z,45.03
2018-11-04T09:41:57.914Z,55.17
2018-11-04T09:44:29.238Z,48.73
2018-11-04T09:47:00.501Z,49.03
2018-11-04T09:49:30.851Z,51.47
2018-11-04T09:52:00.964Z,50.60
2018-11-04T09:54:32.061Z,45.17
2018-11-04T09:57:02.987Z,44.83
2018-11-04T09:59:34.219Z,46.63
2018-11-04T10:02:04.370Z,58.37
2018-11-04T10:04:34.415Z,51.20
2018-11-04T10:07:05.331Z,51.33
2018-11-04T10:09:36.202Z,48.57
2018-11-04T10:12:07.706Z,52.67
2018-11-04T10:14:38.012Z,47.33
2018-11-04T10:17:08.662Z,54.20
2018-11-04T10:19:38.974Z,52.83
2018-11-04T10:22:09.570Z,56.60
2018-11-04T10:24:40.140Z,49.73
2018-11-04T10:27:10.437Z,46.93
2018-11-04T10:29:42.138Z,51.27
2018-11-04T10:32:13.506Z,48.00
2018-11-04T10:34:45.567Z,56.27
2018-11-04T10:37:15.972Z,53.03
2018-11-04T10:39:47.301Z,50.93
2018-11-04T10:42:17.493Z,56.83
2018-11-04T10:44:49.583Z,51.30
2018-11-04T10:47:19.798Z,50.30
2018-11-04T10:49:53.935Z,48.13
2018-11-04T10:52:24.374Z,49.70
2018-11-04T10:54:54.564Z,50.57
2018-11-04T10:57:24.811Z,54.50
2018-11-04T10:59:55.067Z,48.03
2018-11-04T11:02:25.698Z,51.43
2018-11-04T11:04:58.510Z,49.57
2018-11-04T11:07:28.716Z,51.40
2018-11-04T11:09:58.703Z,47.83
2018-11-04T11:12:30.399Z,46.80
2018-11-04T11:15:01.167Z,46.50
2018-11-04T11:17:31.841Z,42.97
2018-11-04T11:20:02.447Z,57.90
2018-11-04T11:22:32.951Z,51.40
2018-11-04T11:25:06.189Z,47.23
2018-11-04T11:27:37.537Z,47.67
2018-11-04T11:30:08.224Z,47.47
2018-11-04T11:32:39.532Z,55.70
2018-11-04T11:35:11.662Z,44.93
2018-11-04T11:37:42.484Z,49.20
2018-11-04T11:40:12.447Z,49.63
2018-11-04T11:42:45.775Z,49.57
2018-11-04T11:45:18.369Z,58.33
2018-11-04T11:47:48.951Z,45.10
2018-11-04T11:50:20.350Z,48.07
2018-11-04T11:52:52.334Z,56.10
2018-11-04T11:55:22.463Z,48.70
2018-11-04T11:57:52.875Z,49.83
2018-11-04T12:00:23.828Z,47.43
2018-11-04T12:02:55.637Z,52.73
2018-11-04T12:05:26.980Z,54.67
2018-11-04T12:07:59.100Z,49.73
2018-11-04T12:10:31.059Z,50.27
2018-11-04T12:13:02.184Z,53.43
2018-11-04T12:15:35.054Z,52.07
2018-11-04T12:18:07.702Z,45.33
2018-11-04T12:20:40.143Z,48.23
2018-11-04T12:23:10.538Z,48.63
2018-11-04T12:25:41.023Z,52.93
2018-11-04T12:28:11.207Z,50.70
2018-11-04T12:30:41.896Z,51.53
2018-11-04T12:33:12.072Z,53.63
2018-11-04T12:35:42.878Z,46.90
2018-11-04T12:38:14.116Z,54.73
2018-11-04T12:40:44.839Z,45.37
2018-11-04T12:43:15.096Z,53.53
2018-11-04T12:45:46.282Z,47.33
2018-11-04T12:48:16.985Z,54.40
2018-11-04T12:50:48.099Z,52.97
2018-11-04T12:53:18.249Z,52.57
2018-11-04T12:55:48.713Z,52.37
2018-11-04T12:58:21.094Z,49.33
2018-11-04T13:00:53.295Z,52.43
2018-11-04T13:03:23.388Z,53.40
2018-11-04T13:05:56.584Z,53.90
2018-11-04T13:08:27.274Z,47.00
2018-11-04T13:11:00.068Z,46.67
2018-11-04T13:13:32.223Z,50.63
2018-11-04T13:16:02.892Z,51.97
2018-11-04T13:18:33.852Z,52.23
2018-11-04T13:21:04.153Z,53.23
2018-11-04T13:23:35.697Z,57.47
2018-11-04T13:26:06.742Z,53.47
2018-11-04T13:28:37.530Z,56.33
2018-11-04T13:31:11.230Z,49.40
2018-11-04T13:37:08.470Z,57.13
2018-11-04T13:39:38.589Z,55.03
2018-11-04T13:42:09.599Z,53.17
2018-11-04T13:44:40.390Z,61.20
2018-11-04T13:47:12.682Z,49.07
2018-11-04T13:49:43.413Z,47.97
2018-11-04T13:52:13.641Z,56.37
2018-11-04T13:54:45.103Z,52.17
2018-11-04T13:57:15.875Z,55.07
2018-11-04T13:59:46.830Z,53.03
2018-11-04T14:02:17.208Z,52.60
2018-11-04T14:04:48.582Z,53.43
2018-11-04T14:07:19.995Z,53.27
2018-11-04T14:09:50.371Z,52.70
2018-11-04T14:12:21.695Z,58.90
2018-11-04T14:14:52.428Z,57.60
2018-11-04T14:17:23.831Z,55.50
2018-11-04T14:19:55.695Z,52.17
2018-11-04T14:22:26.121Z,53.90
2018-11-04T14:24:56.076Z,56.03
2018-11-04T14:27:26.470Z,55.50
2018-11-04T14:30:00.340Z,60.17
2018-11-04T14:32:33.961Z,50.77
2018-11-04T14:35:04.113Z,50.37
2018-11-04T14:37:34.018Z,53.20
2018-11-04T14:40:03.798Z,59.80
2018-11-04T14:42:34.176Z,59.57
2018-11-04T14:45:07.245Z,52.90
2018-11-04T14:47:38.191Z,54.70
2018-11-04T14:50:15.529Z,55.70
2018-11-04T14:52:46.502Z,54.17
2018-11-04T14:55:17.491Z,54.53
2018-11-04T14:57:48.513Z,56.73
2018-11-04T15:00:19.681Z,56.10
2018-11-04T15:02:49.700Z,49.87
2018-11-04T15:05:20.035Z,54.17
2018-11-04T15:07:51.203Z,53.77
2018-11-04T15:10:21.487Z,50.47
2018-11-04T15:12:52.319Z,47.60
2018-11-04T15:15:24.048Z,56.53
2018-11-04T15:17:55.730Z,52.57
2018-11-04T15:20:26.419Z,50.07
2018-11-04T15:22:58.063Z,53.80
2018-11-04T15:25:27.980Z,50.40
2018-11-04T15:27:58.353Z,49.47
2018-11-04T15:30:31.643Z,50.97
2018-11-04T15:33:03.565Z,52.00
2018-11-04T15:35:34.460Z,48.00
2018-11-04T15:38:05.894Z,53.90
2018-11-04T15:40:49.916Z,44.43
2018-11-04T15:43:22.595Z,49.13
2018-11-04T15:45:55.856Z,44.97
2018-11-04T15:48:26.191Z,54.50
2018-11-04T15:50:56.384Z,52.83
2018-11-04T15:53:26.918Z,48.43
2018-11-04T15:55:58.745Z,55.43
2018-11-04T15:58:31.474Z,49.27
2018-11-04T16:01:01.923Z,47.07
2018-11-04T16:03:33.088Z,45.53
2018-11-04T16:06:04.436Z,45.57
2018-11-04T16:08:35.985Z,43.57
2018-11-04T16:11:06.679Z,44.93
2018-11-04T16:13:37.802Z,46.90
2018-11-04T16:16:08.360Z,44.57
2018-11-04T16:18:38.912Z,42.73
2018-11-04T16:21:11.524Z,43.17
2018-11-04T16:23:42.321Z,41.60
2018-11-04T16:26:12.999Z,45.10
2018-11-04T16:28:43.068Z,48.73
2018-11-04T16:31:17.795Z,48.40
2018-11-04T16:33:47.766Z,42.40
2018-11-04T16:36:18.352Z,46.70
2018-11-04T16:38:48.529Z,44.87
2018-11-04T16:41:20.494Z,48.30
2018-11-04T16:43:54.767Z,44.03
2018-11-04T16:46:25.695Z,42.50
2018-11-04T16:48:56.590Z,53.00
2018-11-04T16:51:38.820Z,49.30
2018-11-04T16:54:24.913Z,47.97
2018-11-04T16:56:57.538Z,48.47
2018-11-04T16:59:29.350Z,57.20
2018-11-04T17:02:02.844Z,55.27
2018-11-04T17:04:37.615Z,65.17
2018-11-04T17:07:08.869Z,49.13
2018-11-04T17:09:39.009Z,54.30
2018-11-04T17:12:10.657Z,52.43
2018-11-04T17:14:42.218Z,54.90
2018-11-04T17:17:12.624Z,60.63
2018-11-04T17:19:44.122Z,65.13
2018-11-04T17:22:15.459Z,58.20
2018-11-04T17:24:45.660Z,62.60
2018-11-04T17:27:16.696Z,64.87
2018-11-04T17:29:47.987Z,73.33
2018-11-04T17:32:18.388Z,76.43
2018-11-04T17:34:49.297Z,60.63
2018-11-04T17:37:20.630Z,76.33
2018-11-04T17:39:51.432Z,72.80
2018-11-04T17:42:21.854Z,72.80
2018-11-04T17:44:54.493Z,65.57
2018-11-04T17:47:25.026Z,57.73
2018-11-04T17:49:56.129Z,52.73
2018-11-04T17:52:27.331Z,52.87
2018-11-04T17:54:57.927Z,46.03
2018-11-04T17:57:27.889Z,56.67
2018-11-04T17:59:59.322Z,53.63
2018-11-04T18:02:29.471Z,57.57
2018-11-04T18:05:00.471Z,61.10
2018-11-04T18:07:33.674Z,56.30
2018-11-04T18:10:05.463Z,56.03
2018-11-04T18:12:36.900Z,50.20
2018-11-04T18:15:09.954Z,54.27
2018-11-04T18:17:42.633Z,61.70
2018-11-04T18:20:15.182Z,58.30
2018-11-04T18:22:50.589Z,56.50
2018-11-04T18:25:25.836Z,50.73
2018-11-04T18:27:57.567Z,45.93
2018-11-04T18:30:29.106Z,46.60
2018-11-04T18:33:02.425Z,51.87
2018-11-04T18:35:34.409Z,48.27
2018-11-04T18:38:06.503Z,45.73
2018-11-04T18:40:36.800Z,59.13
2018-11-04T18:43:09.238Z,47.67
2018-11-04T18:45:39.510Z,47.80
2018-11-04T18:48:09.886Z,45.53
2018-11-04T18:50:40.364Z,43.50
2018-11-04T18:53:14.305Z,44.70
2018-11-04T18:55:45.091Z,49.20
2018-11-04T18:58:15.722Z,44.60
2018-11-04T19:00:47.387Z,43.87
2018-11-04T19:03:17.855Z,42.70
2018-11-04T19:05:48.116Z,45.70
2018-11-04T19:08:18.490Z,44.87
2018-11-04T19:10:50.493Z,47.83
2018-11-04T19:13:21.756Z,49.57
2018-11-04T19:15:51.878Z,52.80
2018-11-04T19:18:22.361Z,39.00
2018-11-04T19:20:53.024Z,39.70
2018-11-04T19:23:25.302Z,37.37
2018-11-04T19:25:58.648Z,33.27
2018-11-04T19:28:29.954Z,32.97
2018-11-04T19:31:00.778Z,34.17
2018-11-04T19:33:31.833Z,34.00
2018-11-04T19:36:01.863Z,36.10
2018-11-04T19:38:35.200Z,35.60
2018-11-04T19:41:06.219Z,38.27
2018-11-04T19:43:38.129Z,32.37
2018-11-04T19:46:11.006Z,36.70
2018-11-04T19:48:41.730Z,31.20
2018-11-04T19:51:13.024Z,26.23
2018-11-04T19:53:43.176Z,33.33
2018-11-04T19:56:13.356Z,30.97
2018-11-04T19:58:44.437Z,29.77
2018-11-04T20:01:15.996Z,30.10
2018-11-04T20:03:46.097Z,26.83
2018-11-04T20:06:17.407Z,32.60
2018-11-04T20:08:53.111Z,32.77
2018-11-04T20:11:23.260Z,30.13
2018-11-04T20:14:04.557Z,28.70
2018-11-04T20:16:34.555Z,29.90
2018-11-04T20:19:11.619Z,32.53
2018-11-04T20:21:43.540Z,26.40
2018-11-04T20:24:18.922Z,27.07
2018-11-04T20:26:50.507Z,27.80
2018-11-04T20:29:21.067Z,24.40
2018-11-04T20:31:56.784Z,25.00
2018-11-04T20:34:29.491Z,29.00
2018-11-04T20:36:59.883Z,21.63
2018-11-04T20:39:35.106Z,23.03
2018-11-04T20:42:05.487Z,25.90
2018-11-04T20:44:42.315Z,24.80
2018-11-04T20:47:13.587Z,22.40
2018-11-04T20:49:51.075Z,23.67
2018-11-04T20:52:21.233Z,22.03
2018-11-04T20:54:51.347Z,26.23
2018-11-04T20:57:27.637Z,24.50
2018-11-04T20:59:57.797Z,24.00
2018-11-04T21:02:29.879Z,24.13
2018-11-04T21:05:01.059Z,22.13
2018-11-04T21:07:31.405Z,20.73
2018-11-04T21:10:02.003Z,21.93
2018-11-04T21:12:33.434Z,19.50
2018-11-04T21:15:04.467Z,19.27
2018-11-04T21:17:34.858Z,21.77
2018-11-04T21:20:05.292Z,22.70
2018-11-04T21:22:37.207Z,20.03
2018-11-04T21:25:09.536Z,22.13
2018-11-04T21:27:39.842Z,18.70
2018-11-04T21:30:12.231Z,17.83
2018-11-04T21:32:42.639Z,20.83
2018-11-04T21:35:15.360Z,22.10
2018-11-04T21:37:47.054Z,17.73
2018-11-04T21:40:18.351Z,17.37
2018-11-04T21:42:49.452Z,18.60
2018-11-04T21:45:19.353Z,18.27
2018-11-04T21:47:51.032Z,16.87
2018-11-04T21:50:21.679Z,21.23
2018-11-04T21:52:52.475Z,17.97
2018-11-04T21:55:22.562Z,16.43
2018-11-04T21:57:53.804Z,15.30
2018-11-04T22:00:25.787Z,17.00
2018-11-04T22:02:57.782Z,18.30
2018-11-04T22:05:27.874Z,16.70
2018-11-04T22:07:58.433Z,19.27
2018-11-04T22:10:29.321Z,17.20
2018-11-04T22:12:59.568Z,19.13
2018-11-04T22:15:29.713Z,21.17
2018-11-04T22:18:00.185Z,18.10
2018-11-04T22:20:31.635Z,18.30
2018-11-04T22:23:01.986Z,19.53
2018-11-04T22:25:32.255Z,17.90
2018-11-04T22:28:02.617Z,17.87
2018-11-04T22:30:32.738Z,16.73
2018-11-04T22:33:05.974Z,18.00
2018-11-04T22:35:37.265Z,17.50
2018-11-04T22:38:08.359Z,15.47
2018-11-04T22:40:38.375Z,16.10
2018-11-04T22:43:08.639Z,19.33
2018-11-04T22:45:40.897Z,15.93
2018-11-04T22:48:11.731Z,16.30
2018-11-04T22:50:41.682Z,16.97
2018-11-04T22:53:13.114Z,17.70
2018-11-04T22:55:44.229Z,19.40
2018-11-04T22:58:14.542Z,17.43
2018-11-04T23:00:45.911Z,18.67
2018-11-04T23:03:16.078Z,18.47
2018-11-04T23:05:46.722Z,18.80
2018-11-04T23:08:16.766Z,19.27
2018-11-04T23:10:46.800Z,18.00
2018-11-04T23:13:16.783Z,18.87
2018-11-04T23:15:47.009Z,24.73
2018-11-04T23:18:17.474Z,18.03
2018-11-04T23:20:48.638Z,20.53
2018-11-04T23:23:18.727Z,24.67
2018-11-04T23:25:52.177Z,19.17
2018-11-04T23:28:22.063Z,19.40
2018-11-04T23:30:52.508Z,15.37
2018-11-04T23:33:23.077Z,17.97
2018-11-04T23:35:53.176Z,20.37
2018-11-04T23:38:23.139Z,19.33
2018-11-04T23:40:53.188Z,18.50
2018-11-04T23:43:23.555Z,17.23
2018-11-04T23:45:55.778Z,18.80
2018-11-04T23:48:28.123Z,24.10
2018-11-04T23:50:58.559Z,19.13
2018-11-04T23:53:29.528Z,18.43
2018-11-04T23:56:00.032Z,19.53
2018-11-04T23:58:30.329Z,20.30
